sensor_id;sensor_type;location;lat;lon;timestamp;P1;durP1;ratioP1;P2;durP2;ratioP2
34248;SDS011;20508;50.834;3.160;2022-11-20T00:01:53;40.22;;;27.73;;
34248;SDS011;20508;50.834;3.160;2022-11-20T00:04:19;37.85;;;27.40;;
34248;SDS011;20508;50.834;3.160;2022-11-20T00:06:45;42.42;;;27.75;;
34248;SDS011;20508;50.834;3.160;2022-11-20T00:09:12;37.85;;;27.23;;
34248;SDS011;20508;50.834;3.160;2022-11-20T00:11:37;38.15;;;26.58;;
34248;SDS011;20508;50.834;3.160;2022-11-20T00:14:03;36.30;;;26.27;;
34248;SDS011;20508;50.834;3.160;2022-11-20T00:16:30;40.17;;;26.58;;
34248;SDS011;20508;50.834;3.160;2022-11-20T00:18:58;38.35;;;26.92;;
34248;SDS011;20508;50.834;3.160;2022-11-20T00:21:25;36.97;;;26.27;;
34248;SDS011;20508;50.834;3.160;2022-11-20T00:23:53;36.58;;;26.13;;
34248;SDS011;20508;50.834;3.160;2022-11-20T00:26:21;40.22;;;27.42;;
34248;SDS011;20508;50.834;3.160;2022-11-20T00:28:52;36.65;;;26.52;;
34248;SDS011;20508;50.834;3.160;2022-11-20T00:31:19;36.97;;;25.42;;
34248;SDS011;20508;50.834;3.160;2022-11-20T00:33:46;35.97;;;26.67;;
34248;SDS011;20508;50.834;3.160;2022-11-20T00:36:13;36.72;;;26.60;;
34248;SDS011;20508;50.834;3.160;2022-11-20T00:38:41;39.75;;;27.08;;
34248;SDS011;20508;50.834;3.160;2022-11-20T00:41:08;40.63;;;26.98;;
34248;SDS011;20508;50.834;3.160;2022-11-20T00:43:37;38.33;;;26.60;;
34248;SDS011;20508;50.834;3.160;2022-11-20T00:46:07;38.63;;;27.30;;
34248;SDS011;20508;50.834;3.160;2022-11-20T00:48:41;37.80;;;26.23;;
34248;SDS011;20508;50.834;3.160;2022-11-20T00:51:07;40.97;;;27.55;;
34248;SDS011;20508;50.834;3.160;2022-11-20T00:53:33;36.90;;;25.83;;
34248;SDS011;20508;50.834;3.160;2022-11-20T00:56:03;40.38;;;26.95;;
34248;SDS011;20508;50.834;3.160;2022-11-20T00:58:32;38.20;;;26.10;;
34248;SDS011;20508;50.834;3.160;2022-11-20T01:01:21;39.83;;;25.85;;
34248;SDS011;20508;50.834;3.160;2022-11-20T01:03:49;36.00;;;26.20;;
34248;SDS011;20508;50.834;3.160;2022-11-20T01:06:17;38.38;;;26.30;;
34248;SDS011;20508;50.834;3.160;2022-11-20T01:08:46;37.05;;;25.77;;
34248;SDS011;20508;50.834;3.160;2022-11-20T01:11:17;38.00;;;26.60;;
34248;SDS011;20508;50.834;3.160;2022-11-20T01:13:46;39.30;;;26.67;;
34248;SDS011;20508;50.834;3.160;2022-11-20T01:16:19;33.67;;;25.40;;
34248;SDS011;20508;50.834;3.160;2022-11-20T01:18:47;37.10;;;25.25;;
34248;SDS011;20508;50.834;3.160;2022-11-20T01:21:16;37.28;;;25.38;;
34248;SDS011;20508;50.834;3.160;2022-11-20T01:23:44;36.63;;;25.77;;
34248;SDS011;20508;50.834;3.160;2022-11-20T01:26:15;35.75;;;24.92;;
34248;SDS011;20508;50.834;3.160;2022-11-20T01:28:43;38.42;;;25.40;;
34248;SDS011;20508;50.834;3.160;2022-11-20T01:33:46;35.38;;;24.98;;
34248;SDS011;20508;50.834;3.160;2022-11-20T01:36:14;38.47;;;25.85;;
34248;SDS011;20508;50.834;3.160;2022-11-20T01:38:40;35.75;;;24.52;;
34248;SDS011;20508;50.834;3.160;2022-11-20T01:41:07;34.95;;;24.25;;
34248;SDS011;20508;50.834;3.160;2022-11-20T01:43:34;36.85;;;24.73;;
34248;SDS011;20508;50.834;3.160;2022-11-20T01:51:39;32.97;;;24.55;;
34248;SDS011;20508;50.834;3.160;2022-11-20T01:54:10;33.97;;;24.38;;
34248;SDS011;20508;50.834;3.160;2022-11-20T01:56:42;36.78;;;23.88;;
34248;SDS011;20508;50.834;3.160;2022-11-20T01:59:12;38.97;;;24.83;;
34248;SDS011;20508;50.834;3.160;2022-11-20T02:01:40;34.55;;;24.77;;
34248;SDS011;20508;50.834;3.160;2022-11-20T02:04:07;34.10;;;23.55;;
34248;SDS011;20508;50.834;3.160;2022-11-20T02:06:39;32.95;;;23.92;;
34248;SDS011;20508;50.834;3.160;2022-11-20T02:09:10;34.60;;;23.60;;
34248;SDS011;20508;50.834;3.160;2022-11-20T02:11:36;35.15;;;23.98;;
34248;SDS011;20508;50.834;3.160;2022-11-20T02:14:02;38.72;;;25.75;;
34248;SDS011;20508;50.834;3.160;2022-11-20T02:16:33;33.40;;;23.92;;
34248;SDS011;20508;50.834;3.160;2022-11-20T02:19:02;36.05;;;23.55;;
34248;SDS011;20508;50.834;3.160;2022-11-20T02:21:40;33.80;;;24.02;;
34248;SDS011;20508;50.834;3.160;2022-11-20T02:26:45;34.47;;;23.52;;
34248;SDS011;20508;50.834;3.160;2022-11-20T02:29:17;39.30;;;25.42;;
34248;SDS011;20508;50.834;3.160;2022-11-20T02:34:14;34.50;;;23.45;;
34248;SDS011;20508;50.834;3.160;2022-11-20T02:36:40;34.20;;;24.10;;
34248;SDS011;20508;50.834;3.160;2022-11-20T02:39:08;34.85;;;23.55;;
34248;SDS011;20508;50.834;3.160;2022-11-20T02:41:37;33.85;;;22.65;;
34248;SDS011;20508;50.834;3.160;2022-11-20T02:44:04;33.55;;;23.60;;
34248;SDS011;20508;50.834;3.160;2022-11-20T02:46:30;33.35;;;22.33;;
34248;SDS011;20508;50.834;3.160;2022-11-20T02:48:57;30.00;;;21.80;;
34248;SDS011;20508;50.834;3.160;2022-11-20T02:51:23;32.22;;;23.13;;
34248;SDS011;20508;50.834;3.160;2022-11-20T02:53:49;35.08;;;23.63;;
34248;SDS011;20508;50.834;3.160;2022-11-20T02:56:15;35.00;;;23.00;;
34248;SDS011;20508;50.834;3.160;2022-11-20T02:58:41;32.15;;;22.75;;
34248;SDS011;20508;50.834;3.160;2022-11-20T03:01:08;35.60;;;24.02;;
34248;SDS011;20508;50.834;3.160;2022-11-20T03:03:33;33.75;;;23.15;;
34248;SDS011;20508;50.834;3.160;2022-11-20T03:06:00;32.60;;;22.85;;
34248;SDS011;20508;50.834;3.160;2022-11-20T03:08:26;38.00;;;23.63;;
34248;SDS011;20508;50.834;3.160;2022-11-20T03:10:52;30.80;;;22.75;;
34248;SDS011;20508;50.834;3.160;2022-11-20T03:13:18;35.50;;;23.52;;
34248;SDS011;20508;50.834;3.160;2022-11-20T03:15:44;35.35;;;23.38;;
34248;SDS011;20508;50.834;3.160;2022-11-20T03:18:09;29.48;;;21.65;;
34248;SDS011;20508;50.834;3.160;2022-11-20T03:20:35;30.83;;;22.63;;
34248;SDS011;20508;50.834;3.160;2022-11-20T03:23:01;32.28;;;22.25;;
34248;SDS011;20508;50.834;3.160;2022-11-20T03:25:27;30.52;;;22.05;;
34248;SDS011;20508;50.834;3.160;2022-11-20T03:27:53;32.75;;;22.90;;
34248;SDS011;20508;50.834;3.160;2022-11-20T03:30:20;33.40;;;22.70;;
34248;SDS011;20508;50.834;3.160;2022-11-20T03:32:47;33.95;;;23.25;;
34248;SDS011;20508;50.834;3.160;2022-11-20T03:35:13;32.08;;;22.55;;
34248;SDS011;20508;50.834;3.160;2022-11-20T03:37:38;32.10;;;21.63;;
34248;SDS011;20508;50.834;3.160;2022-11-20T03:40:05;31.63;;;21.63;;
34248;SDS011;20508;50.834;3.160;2022-11-20T03:42:32;35.15;;;23.08;;
34248;SDS011;20508;50.834;3.160;2022-11-20T03:45:11;34.30;;;21.80;;
34248;SDS011;20508;50.834;3.160;2022-11-20T03:47:38;31.75;;;22.25;;
34248;SDS011;20508;50.834;3.160;2022-11-20T03:50:04;32.60;;;22.15;;
34248;SDS011;20508;50.834;3.160;2022-11-20T03:52:30;33.08;;;22.98;;
34248;SDS011;20508;50.834;3.160;2022-11-20T03:54:57;33.83;;;22.10;;
34248;SDS011;20508;50.834;3.160;2022-11-20T03:57:23;32.50;;;22.50;;
34248;SDS011;20508;50.834;3.160;2022-11-20T03:59:49;30.25;;;21.33;;
34248;SDS011;20508;50.834;3.160;2022-11-20T04:02:15;32.20;;;22.00;;
34248;SDS011;20508;50.834;3.160;2022-11-20T04:04:40;33.47;;;22.63;;
34248;SDS011;20508;50.834;3.160;2022-11-20T04:07:06;30.25;;;21.02;;
34248;SDS011;20508;50.834;3.160;2022-11-20T04:09:31;30.70;;;21.73;;
34248;SDS011;20508;50.834;3.160;2022-11-20T04:11:58;29.08;;;21.40;;
34248;SDS011;20508;50.834;3.160;2022-11-20T04:14:24;32.60;;;21.25;;
34248;SDS011;20508;50.834;3.160;2022-11-20T04:16:49;29.55;;;20.70;;
34248;SDS011;20508;50.834;3.160;2022-11-20T04:19:16;29.25;;;20.70;;
34248;SDS011;20508;50.834;3.160;2022-11-20T04:21:42;30.85;;;20.27;;
34248;SDS011;20508;50.834;3.160;2022-11-20T04:24:08;29.50;;;20.25;;
34248;SDS011;20508;50.834;3.160;2022-11-20T04:26:35;31.05;;;20.98;;
34248;SDS011;20508;50.834;3.160;2022-11-20T04:29:02;32.17;;;20.95;;
34248;SDS011;20508;50.834;3.160;2022-11-20T04:31:30;26.23;;;18.90;;
34248;SDS011;20508;50.834;3.160;2022-11-20T04:34:04;24.25;;;19.48;;
34248;SDS011;20508;50.834;3.160;2022-11-20T04:36:31;25.45;;;19.63;;
34248;SDS011;20508;50.834;3.160;2022-11-20T04:38:58;25.67;;;19.48;;
34248;SDS011;20508;50.834;3.160;2022-11-20T04:41:27;28.27;;;20.45;;
34248;SDS011;20508;50.834;3.160;2022-11-20T04:43:55;26.10;;;20.35;;
34248;SDS011;20508;50.834;3.160;2022-11-20T04:46:24;26.15;;;20.00;;
34248;SDS011;20508;50.834;3.160;2022-11-20T04:48:52;28.27;;;20.13;;
34248;SDS011;20508;50.834;3.160;2022-11-20T04:51:18;27.88;;;19.45;;
34248;SDS011;20508;50.834;3.160;2022-11-20T04:53:44;27.45;;;19.70;;
34248;SDS011;20508;50.834;3.160;2022-11-20T04:56:11;27.55;;;19.60;;
34248;SDS011;20508;50.834;3.160;2022-11-20T04:58:38;25.88;;;19.40;;
34248;SDS011;20508;50.834;3.160;2022-11-20T05:03:32;27.45;;;20.17;;
34248;SDS011;20508;50.834;3.160;2022-11-20T05:06:02;24.80;;;18.08;;
34248;SDS011;20508;50.834;3.160;2022-11-20T05:08:29;25.88;;;18.92;;
34248;SDS011;20508;50.834;3.160;2022-11-20T05:11:15;23.40;;;17.45;;
34248;SDS011;20508;50.834;3.160;2022-11-20T05:13:42;24.38;;;17.95;;
34248;SDS011;20508;50.834;3.160;2022-11-20T05:16:09;24.83;;;18.02;;
34248;SDS011;20508;50.834;3.160;2022-11-20T05:18:39;23.52;;;17.38;;
34248;SDS011;20508;50.834;3.160;2022-11-20T05:21:06;22.33;;;17.48;;
34248;SDS011;20508;50.834;3.160;2022-11-20T05:23:32;23.42;;;18.20;;
34248;SDS011;20508;50.834;3.160;2022-11-20T05:25:58;23.40;;;18.25;;
34248;SDS011;20508;50.834;3.160;2022-11-20T05:28:26;22.13;;;17.70;;
34248;SDS011;20508;50.834;3.160;2022-11-20T05:30:53;20.90;;;17.15;;
34248;SDS011;20508;50.834;3.160;2022-11-20T05:33:20;22.42;;;16.45;;
34248;SDS011;20508;50.834;3.160;2022-11-20T05:35:45;20.60;;;16.90;;
34248;SDS011;20508;50.834;3.160;2022-11-20T05:38:12;22.33;;;16.67;;
34248;SDS011;20508;50.834;3.160;2022-11-20T05:40:38;21.50;;;17.65;;
34248;SDS011;20508;50.834;3.160;2022-11-20T05:43:04;23.45;;;17.30;;
34248;SDS011;20508;50.834;3.160;2022-11-20T05:45:30;23.65;;;17.30;;
34248;SDS011;20508;50.834;3.160;2022-11-20T05:47:59;24.70;;;16.58;;
34248;SDS011;20508;50.834;3.160;2022-11-20T05:50:25;23.00;;;17.10;;
34248;SDS011;20508;50.834;3.160;2022-11-20T05:52:52;20.13;;;16.13;;
34248;SDS011;20508;50.834;3.160;2022-11-20T05:55:18;20.85;;;16.95;;
34248;SDS011;20508;50.834;3.160;2022-11-20T05:57:43;20.58;;;17.08;;
34248;SDS011;20508;50.834;3.160;2022-11-20T06:00:09;21.65;;;16.92;;
34248;SDS011;20508;50.834;3.160;2022-11-20T06:02:36;17.95;;;15.25;;
34248;SDS011;20508;50.834;3.160;2022-11-20T06:05:01;19.08;;;14.85;;
34248;SDS011;20508;50.834;3.160;2022-11-20T06:07:28;20.33;;;15.75;;
34248;SDS011;20508;50.834;3.160;2022-11-20T06:09:53;19.73;;;15.73;;
34248;SDS011;20508;50.834;3.160;2022-11-20T06:12:20;18.80;;;14.98;;
34248;SDS011;20508;50.834;3.160;2022-11-20T06:14:46;17.85;;;15.05;;
34248;SDS011;20508;50.834;3.160;2022-11-20T06:17:11;20.45;;;16.08;;
34248;SDS011;20508;50.834;3.160;2022-11-20T06:19:38;20.00;;;15.48;;
34248;SDS011;20508;50.834;3.160;2022-11-20T06:22:04;18.05;;;14.73;;
34248;SDS011;20508;50.834;3.160;2022-11-20T06:24:30;20.73;;;15.18;;
34248;SDS011;20508;50.834;3.160;2022-11-20T06:26:56;17.83;;;15.15;;
34248;SDS011;20508;50.834;3.160;2022-11-20T06:29:22;17.77;;;14.98;;
34248;SDS011;20508;50.834;3.160;2022-11-20T06:31:48;18.25;;;14.68;;
34248;SDS011;20508;50.834;3.160;2022-11-20T06:34:15;17.50;;;14.27;;
34248;SDS011;20508;50.834;3.160;2022-11-20T06:36:40;18.58;;;14.95;;
34248;SDS011;20508;50.834;3.160;2022-11-20T06:39:06;15.23;;;13.63;;
34248;SDS011;20508;50.834;3.160;2022-11-20T06:41:32;17.92;;;15.43;;
34248;SDS011;20508;50.834;3.160;2022-11-20T06:43:58;16.40;;;14.10;;
34248;SDS011;20508;50.834;3.160;2022-11-20T06:46:24;17.08;;;14.57;;
34248;SDS011;20508;50.834;3.160;2022-11-20T06:48:50;17.45;;;14.05;;
34248;SDS011;20508;50.834;3.160;2022-11-20T06:51:16;16.00;;;14.25;;
34248;SDS011;20508;50.834;3.160;2022-11-20T06:53:42;16.73;;;13.60;;
34248;SDS011;20508;50.834;3.160;2022-11-20T06:56:08;16.63;;;14.00;;
34248;SDS011;20508;50.834;3.160;2022-11-20T06:58:34;16.63;;;14.15;;
34248;SDS011;20508;50.834;3.160;2022-11-20T07:01:02;15.57;;;13.88;;
34248;SDS011;20508;50.834;3.160;2022-11-20T07:03:30;16.10;;;13.77;;
34248;SDS011;20508;50.834;3.160;2022-11-20T07:05:56;16.88;;;13.32;;
34248;SDS011;20508;50.834;3.160;2022-11-20T07:08:23;17.63;;;14.68;;
34248;SDS011;20508;50.834;3.160;2022-11-20T07:10:49;16.98;;;13.63;;
34248;SDS011;20508;50.834;3.160;2022-11-20T07:13:16;15.57;;;13.82;;
34248;SDS011;20508;50.834;3.160;2022-11-20T07:15:42;15.77;;;13.40;;
34248;SDS011;20508;50.834;3.160;2022-11-20T07:18:08;16.45;;;13.68;;
34248;SDS011;20508;50.834;3.160;2022-11-20T07:20:33;17.13;;;13.80;;
34248;SDS011;20508;50.834;3.160;2022-11-20T07:22:59;14.98;;;13.25;;
34248;SDS011;20508;50.834;3.160;2022-11-20T07:25:25;14.25;;;12.60;;
34248;SDS011;20508;50.834;3.160;2022-11-20T07:27:52;14.02;;;12.52;;
34248;SDS011;20508;50.834;3.160;2022-11-20T07:30:22;15.48;;;13.25;;
34248;SDS011;20508;50.834;3.160;2022-11-20T07:32:50;14.88;;;13.20;;
34248;SDS011;20508;50.834;3.160;2022-11-20T07:35:17;15.30;;;12.43;;
34248;SDS011;20508;50.834;3.160;2022-11-20T07:37:44;16.98;;;13.63;;
34248;SDS011;20508;50.834;3.160;2022-11-20T07:40:11;16.98;;;13.05;;
34248;SDS011;20508;50.834;3.160;2022-11-20T07:42:38;14.65;;;13.15;;
34248;SDS011;20508;50.834;3.160;2022-11-20T07:45:04;14.70;;;13.20;;
34248;SDS011;20508;50.834;3.160;2022-11-20T07:47:36;13.35;;;11.82;;
34248;SDS011;20508;50.834;3.160;2022-11-20T07:50:02;14.05;;;12.57;;
34248;SDS011;20508;50.834;3.160;2022-11-20T07:52:28;14.18;;;12.60;;
34248;SDS011;20508;50.834;3.160;2022-11-20T07:54:54;14.75;;;13.18;;
34248;SDS011;20508;50.834;3.160;2022-11-20T07:57:20;13.68;;;12.27;;
34248;SDS011;20508;50.834;3.160;2022-11-20T07:59:46;13.88;;;12.20;;
34248;SDS011;20508;50.834;3.160;2022-11-20T08:02:12;14.27;;;12.77;;
34248;SDS011;20508;50.834;3.160;2022-11-20T08:04:38;13.45;;;12.05;;
34248;SDS011;20508;50.834;3.160;2022-11-20T08:07:04;14.02;;;12.65;;
34248;SDS011;20508;50.834;3.160;2022-11-20T08:09:30;15.10;;;12.40;;
34248;SDS011;20508;50.834;3.160;2022-11-20T08:11:57;14.30;;;12.80;;
34248;SDS011;20508;50.834;3.160;2022-11-20T08:14:41;13.27;;;11.98;;
34248;SDS011;20508;50.834;3.160;2022-11-20T08:17:07;14.05;;;12.70;;
34248;SDS011;20508;50.834;3.160;2022-11-20T08:19:33;13.82;;;12.40;;
34248;SDS011;20508;50.834;3.160;2022-11-20T08:21:59;13.05;;;11.65;;
34248;SDS011;20508;50.834;3.160;2022-11-20T08:24:25;14.85;;;12.73;;
34248;SDS011;20508;50.834;3.160;2022-11-20T08:26:51;12.75;;;11.48;;
34248;SDS011;20508;50.834;3.160;2022-11-20T08:29:17;12.88;;;11.57;;
34248;SDS011;20508;50.834;3.160;2022-11-20T08:31:43;13.18;;;11.88;;
34248;SDS011;20508;50.834;3.160;2022-11-20T08:34:09;12.45;;;11.25;;
34248;SDS011;20508;50.834;3.160;2022-11-20T08:36:36;12.68;;;11.45;;
34248;SDS011;20508;50.834;3.160;2022-11-20T08:39:02;12.38;;;11.15;;
34248;SDS011;20508;50.834;3.160;2022-11-20T08:41:29;12.40;;;11.20;;
34248;SDS011;20508;50.834;3.160;2022-11-20T08:44:02;13.02;;;11.73;;
34248;SDS011;20508;50.834;3.160;2022-11-20T08:46:33;13.57;;;12.23;;
34248;SDS011;20508;50.834;3.160;2022-11-20T08:49:04;12.98;;;11.77;;
34248;SDS011;20508;50.834;3.160;2022-11-20T08:51:31;12.50;;;11.23;;
34248;SDS011;20508;50.834;3.160;2022-11-20T08:53:57;13.32;;;11.63;;
34248;SDS011;20508;50.834;3.160;2022-11-20T08:56:23;12.20;;;10.88;;
34248;SDS011;20508;50.834;3.160;2022-11-20T08:58:50;13.75;;;11.85;;
34248;SDS011;20508;50.834;3.160;2022-11-20T09:01:19;12.43;;;11.23;;
34248;SDS011;20508;50.834;3.160;2022-11-20T09:03:46;11.95;;;10.85;;
34248;SDS011;20508;50.834;3.160;2022-11-20T09:06:13;11.18;;;10.07;;
34248;SDS011;20508;50.834;3.160;2022-11-20T09:08:40;11.85;;;10.75;;
34248;SDS011;20508;50.834;3.160;2022-11-20T09:11:06;11.35;;;10.20;;
34248;SDS011;20508;50.834;3.160;2022-11-20T09:13:33;11.38;;;10.30;;
34248;SDS011;20508;50.834;3.160;2022-11-20T09:16:00;10.63;;;9.55;;
34248;SDS011;20508;50.834;3.160;2022-11-20T09:18:29;11.00;;;10.00;;
34248;SDS011;20508;50.834;3.160;2022-11-20T09:21:00;11.20;;;10.10;;
34248;SDS011;20508;50.834;3.160;2022-11-20T09:23:30;10.60;;;8.95;;
34248;SDS011;20508;50.834;3.160;2022-11-20T09:25:58;9.95;;;8.95;;
34248;SDS011;20508;50.834;3.160;2022-11-20T09:28:31;9.90;;;9.00;;
34248;SDS011;20508;50.834;3.160;2022-11-20T09:30:58;10.50;;;9.13;;
34248;SDS011;20508;50.834;3.160;2022-11-20T09:33:24;9.65;;;8.75;;
34248;SDS011;20508;50.834;3.160;2022-11-20T09:35:50;10.20;;;9.20;;
34248;SDS011;20508;50.834;3.160;2022-11-20T09:38:15;9.68;;;8.77;;
34248;SDS011;20508;50.834;3.160;2022-11-20T09:40:51;10.00;;;8.82;;
34248;SDS011;20508;50.834;3.160;2022-11-20T09:46:04;9.05;;;8.20;;
34248;SDS011;20508;50.834;3.160;2022-11-20T09:54:20;8.15;;;7.43;;
34248;SDS011;20508;50.834;3.160;2022-11-20T09:56:49;7.50;;;6.80;;
34248;SDS011;20508;50.834;3.160;2022-11-20T10:02:19;8.07;;;7.22;;
34248;SDS011;20508;50.834;3.160;2022-11-20T10:05:05;7.07;;;6.47;;
34248;SDS011;20508;50.834;3.160;2022-11-20T10:07:44;7.68;;;6.95;;
34248;SDS011;20508;50.834;3.160;2022-11-20T10:10:28;7.22;;;6.53;;
34248;SDS011;20508;50.834;3.160;2022-11-20T10:13:17;7.65;;;6.55;;
34248;SDS011;20508;50.834;3.160;2022-11-20T10:21:36;6.85;;;6.20;;
34248;SDS011;20508;50.834;3.160;2022-11-20T10:26:57;6.93;;;6.32;;
34248;SDS011;20508;50.834;3.160;2022-11-20T10:29:46;6.38;;;5.63;;
34248;SDS011;20508;50.834;3.160;2022-11-20T10:32:19;5.65;;;5.15;;
34248;SDS011;20508;50.834;3.160;2022-11-20T10:34:53;5.97;;;5.47;;
34248;SDS011;20508;50.834;3.160;2022-11-20T10:37:35;6.65;;;5.63;;
34248;SDS011;20508;50.834;3.160;2022-11-20T10:40:20;6.38;;;5.75;;
34248;SDS011;20508;50.834;3.160;2022-11-20T10:43:10;5.85;;;5.25;;
34248;SDS011;20508;50.834;3.160;2022-11-20T10:51:21;5.68;;;5.18;;
34248;SDS011;20508;50.834;3.160;2022-11-20T10:56:16;5.78;;;5.15;;
34248;SDS011;20508;50.834;3.160;2022-11-20T11:01:20;5.28;;;4.88;;
34248;SDS011;20508;50.834;3.160;2022-11-20T11:03:48;5.47;;;4.95;;
34248;SDS011;20508;50.834;3.160;2022-11-20T11:06:28;5.40;;;4.90;;
34248;SDS011;20508;50.834;3.160;2022-11-20T11:09:16;5.38;;;4.88;;
34248;SDS011;20508;50.834;3.160;2022-11-20T11:11:51;5.57;;;5.05;;
34248;SDS011;20508;50.834;3.160;2022-11-20T11:14:17;7.20;;;5.00;;
34248;SDS011;20508;50.834;3.160;2022-11-20T11:16:51;5.55;;;5.00;;
34248;SDS011;20508;50.834;3.160;2022-11-20T11:19:21;4.38;;;4.00;;
34248;SDS011;20508;50.834;3.160;2022-11-20T11:21:54;5.40;;;4.90;;
34248;SDS011;20508;50.834;3.160;2022-11-20T11:24:28;5.10;;;4.60;;
34248;SDS011;20508;50.834;3.160;2022-11-20T11:26:59;4.53;;;4.13;;
34248;SDS011;20508;50.834;3.160;2022-11-20T11:29:30;4.32;;;3.92;;
34248;SDS011;20508;50.834;3.160;2022-11-20T11:32:07;5.28;;;4.45;;
34248;SDS011;20508;50.834;3.160;2022-11-20T11:34:37;5.20;;;4.70;;
34248;SDS011;20508;50.834;3.160;2022-11-20T11:37:03;4.78;;;4.03;;
34248;SDS011;20508;50.834;3.160;2022-11-20T11:39:31;4.85;;;4.38;;
34248;SDS011;20508;50.834;3.160;2022-11-20T11:41:59;4.40;;;3.95;;
34248;SDS011;20508;50.834;3.160;2022-11-20T11:44:35;4.70;;;3.78;;
34248;SDS011;20508;50.834;3.160;2022-11-20T11:47:26;4.72;;;3.97;;
34248;SDS011;20508;50.834;3.160;2022-11-20T11:55:24;4.50;;;3.83;;
34248;SDS011;20508;50.834;3.160;2022-11-20T12:00:41;4.30;;;3.90;;
34248;SDS011;20508;50.834;3.160;2022-11-20T12:03:24;4.00;;;3.60;;
34248;SDS011;20508;50.834;3.160;2022-11-20T12:05:57;4.53;;;4.13;;
34248;SDS011;20508;50.834;3.160;2022-11-20T12:16:29;3.65;;;3.33;;
34248;SDS011;20508;50.834;3.160;2022-11-20T12:18:59;3.80;;;3.25;;
34248;SDS011;20508;50.834;3.160;2022-11-20T12:21:35;3.85;;;3.20;;
34248;SDS011;20508;50.834;3.160;2022-11-20T12:24:32;4.40;;;3.10;;
34248;SDS011;20508;50.834;3.160;2022-11-20T12:30:11;2.92;;;2.70;;
34248;SDS011;20508;50.834;3.160;2022-11-20T12:41:43;3.55;;;2.80;;
34248;SDS011;20508;50.834;3.160;2022-11-20T12:47:50;3.53;;;3.17;;
34248;SDS011;20508;50.834;3.160;2022-11-20T12:56:31;4.97;;;2.90;;
34248;SDS011;20508;50.834;3.160;2022-11-20T12:59:23;2.95;;;2.70;;
34248;SDS011;20508;50.834;3.160;2022-11-20T13:07:28;2.55;;;2.33;;
34248;SDS011;20508;50.834;3.160;2022-11-20T13:09:55;3.33;;;2.65;;
34248;SDS011;20508;50.834;3.160;2022-11-20T13:12:25;3.42;;;2.45;;
34248;SDS011;20508;50.834;3.160;2022-11-20T13:20:21;2.90;;;2.30;;
34248;SDS011;20508;50.834;3.160;2022-11-20T13:22:54;2.40;;;2.10;;
34248;SDS011;20508;50.834;3.160;2022-11-20T13:27:56;2.58;;;2.08;;
34248;SDS011;20508;50.834;3.160;2022-11-20T13:30:24;2.30;;;2.10;;
34248;SDS011;20508;50.834;3.160;2022-11-20T13:35:31;2.10;;;1.90;;
34248;SDS011;20508;50.834;3.160;2022-11-20T13:38:03;2.05;;;1.88;;
34248;SDS011;20508;50.834;3.160;2022-11-20T13:40:38;2.67;;;1.90;;
34248;SDS011;20508;50.834;3.160;2022-11-20T13:43:35;1.90;;;1.80;;
34248;SDS011;20508;50.834;3.160;2022-11-20T13:46:05;2.83;;;2.10;;
34248;SDS011;20508;50.834;3.160;2022-11-20T13:48:34;2.83;;;2.25;;
34248;SDS011;20508;50.834;3.160;2022-11-20T13:54:04;1.90;;;1.70;;
34248;SDS011;20508;50.834;3.160;2022-11-20T13:57:23;2.20;;;2.00;;
34248;SDS011;20508;50.834;3.160;2022-11-20T14:02:16;1.63;;;1.52;;
34248;SDS011;20508;50.834;3.160;2022-11-20T14:04:48;2.92;;;1.63;;
34248;SDS011;20508;50.834;3.160;2022-11-20T14:07:16;1.80;;;1.70;;
34248;SDS011;20508;50.834;3.160;2022-11-20T14:09:52;1.60;;;1.50;;
34248;SDS011;20508;50.834;3.160;2022-11-20T14:12:21;2.55;;;1.85;;
34248;SDS011;20508;50.834;3.160;2022-11-20T14:14:53;1.70;;;1.60;;
34248;SDS011;20508;50.834;3.160;2022-11-20T14:19:54;2.50;;;1.40;;
34248;SDS011;20508;50.834;3.160;2022-11-20T14:27:37;2.03;;;1.60;;
34248;SDS011;20508;50.834;3.160;2022-11-20T14:30:10;2.72;;;1.58;;
34248;SDS011;20508;50.834;3.160;2022-11-20T14:32:39;1.90;;;1.55;;
34248;SDS011;20508;50.834;3.160;2022-11-20T14:35:08;3.00;;;1.98;;
34248;SDS011;20508;50.834;3.160;2022-11-20T14:37:38;2.97;;;1.60;;
34248;SDS011;20508;50.834;3.160;2022-11-20T14:40:20;1.63;;;1.50;;
34248;SDS011;20508;50.834;3.160;2022-11-20T14:42:55;3.17;;;1.52;;
34248;SDS011;20508;50.834;3.160;2022-11-20T14:45:22;3.83;;;1.65;;
34248;SDS011;20508;50.834;3.160;2022-11-20T14:47:50;2.00;;;1.60;;
34248;SDS011;20508;50.834;3.160;2022-11-20T14:50:23;2.17;;;1.70;;
34248;SDS011;20508;50.834;3.160;2022-11-20T14:52:51;2.50;;;1.50;;
34248;SDS011;20508;50.834;3.160;2022-11-20T14:55:27;2.80;;;1.55;;
34248;SDS011;20508;50.834;3.160;2022-11-20T14:58:02;2.63;;;1.50;;
34248;SDS011;20508;50.834;3.160;2022-11-20T15:00:32;2.55;;;1.73;;
34248;SDS011;20508;50.834;3.160;2022-11-20T15:03:00;2.03;;;1.60;;
34248;SDS011;20508;50.834;3.160;2022-11-20T15:05:44;2.47;;;1.67;;
34248;SDS011;20508;50.834;3.160;2022-11-20T15:08:11;3.10;;;1.63;;
34248;SDS011;20508;50.834;3.160;2022-11-20T15:10:38;2.63;;;1.55;;
34248;SDS011;20508;50.834;3.160;2022-11-20T15:13:18;3.25;;;1.70;;
34248;SDS011;20508;50.834;3.160;2022-11-20T15:15:55;3.47;;;1.77;;
34248;SDS011;20508;50.834;3.160;2022-11-20T15:18:36;2.00;;;1.45;;
34248;SDS011;20508;50.834;3.160;2022-11-20T15:21:06;2.75;;;1.70;;
34248;SDS011;20508;50.834;3.160;2022-11-20T15:23:36;4.13;;;2.08;;
34248;SDS011;20508;50.834;3.160;2022-11-20T15:26:01;2.83;;;1.73;;
34248;SDS011;20508;50.834;3.160;2022-11-20T15:31:12;2.63;;;1.35;;
34248;SDS011;20508;50.834;3.160;2022-11-20T15:33:40;1.90;;;1.48;;
34248;SDS011;20508;50.834;3.160;2022-11-20T15:36:06;2.13;;;1.50;;
34248;SDS011;20508;50.834;3.160;2022-11-20T15:38:32;2.60;;;1.63;;
34248;SDS011;20508;50.834;3.160;2022-11-20T15:40:58;2.90;;;1.70;;
34248;SDS011;20508;50.834;3.160;2022-11-20T15:43:23;2.90;;;1.77;;
34248;SDS011;20508;50.834;3.160;2022-11-20T15:45:50;2.35;;;1.40;;
34248;SDS011;20508;50.834;3.160;2022-11-20T15:48:24;3.00;;;1.52;;
34248;SDS011;20508;50.834;3.160;2022-11-20T15:51:01;3.10;;;1.48;;
34248;SDS011;20508;50.834;3.160;2022-11-20T15:53:34;1.95;;;1.60;;
34248;SDS011;20508;50.834;3.160;2022-11-20T15:56:00;2.13;;;1.42;;
34248;SDS011;20508;50.834;3.160;2022-11-20T15:58:30;3.17;;;1.73;;
34248;SDS011;20508;50.834;3.160;2022-11-20T16:00:56;2.85;;;1.85;;
34248;SDS011;20508;50.834;3.160;2022-11-20T16:03:22;2.95;;;1.58;;
34248;SDS011;20508;50.834;3.160;2022-11-20T16:05:49;2.15;;;1.67;;
34248;SDS011;20508;50.834;3.160;2022-11-20T16:08:14;2.25;;;1.60;;
34248;SDS011;20508;50.834;3.160;2022-11-20T16:10:41;3.80;;;2.00;;
34248;SDS011;20508;50.834;3.160;2022-11-20T16:13:14;2.70;;;1.88;;
34248;SDS011;20508;50.834;3.160;2022-11-20T16:15:59;3.20;;;1.70;;
34248;SDS011;20508;50.834;3.160;2022-11-20T16:18:30;3.05;;;2.08;;
34248;SDS011;20508;50.834;3.160;2022-11-20T16:20:56;2.22;;;1.63;;
34248;SDS011;20508;50.834;3.160;2022-11-20T16:23:22;3.85;;;1.80;;
34248;SDS011;20508;50.834;3.160;2022-11-20T16:25:49;3.60;;;1.73;;
34248;SDS011;20508;50.834;3.160;2022-11-20T16:28:16;2.63;;;1.60;;
34248;SDS011;20508;50.834;3.160;2022-11-20T16:30:42;3.25;;;1.88;;
34248;SDS011;20508;50.834;3.160;2022-11-20T16:33:12;3.08;;;1.58;;
34248;SDS011;20508;50.834;3.160;2022-11-20T16:35:40;3.35;;;1.75;;
34248;SDS011;20508;50.834;3.160;2022-11-20T16:38:06;1.50;;;1.30;;
34248;SDS011;20508;50.834;3.160;2022-11-20T16:40:31;2.92;;;1.73;;